createdAt,value
2017-03-12T00:00:19.978Z,22.7
2017-03-12T00:01:19.764Z,22.77
2017-03-12T00:02:19.792Z,22.77
2017-03-12T00:03:19.828Z,22.72
2017-03-12T00:04:19.833Z,22.76
2017-03-12T00:05:20.114Z,22.72
2017-03-12T00:06:19.887Z,22.76
2017-03-12T00:07:19.936Z,22.7
2017-03-12T00:08:19.976Z,22.72
2017-03-12T00:09:19.584Z,22.72
2017-03-12T00:10:20.265Z,22.6
2017-03-12T00:11:19.674Z,22.72
2017-03-12T00:12:20.467Z,22.67
2017-03-12T00:13:20.480Z,22.61
2017-03-12T00:14:20.509Z,22.7
2017-03-12T00:15:20.393Z,22.72
2017-03-12T00:16:20.562Z,22.65
2017-03-12T00:17:20.585Z,22.61
2017-03-12T00:18:20.655Z,22.68
2017-03-12T00:19:20.254Z,22.62
2017-03-12T00:20:19.882Z,22.6
2017-03-12T00:21:20.701Z,22.65
2017-03-12T00:22:20.346Z,22.61
2017-03-12T00:23:20.360Z,22.62
2017-03-12T00:24:20.008Z,22.65
2017-03-12T00:25:20.029Z,22.55
2017-03-12T00:26:20.050Z,22.62
2017-03-12T00:27:20.887Z,22.58
2017-03-12T00:28:20.499Z,22.62
2017-03-12T00:29:20.548Z,22.58
2017-03-12T00:30:20.953Z,22.61
2017-03-12T00:31:20.581Z,22.61
2017-03-12T00:32:20.218Z,22.57
2017-03-12T00:33:20.639Z,22.45
2017-03-12T00:34:20.667Z,22.61
2017-03-12T00:35:20.704Z,22.57
2017-03-12T00:36:20.593Z,22.51
2017-03-12T00:37:20.362Z,22.51
2017-03-12T00:38:20.795Z,22.54
2017-03-12T00:39:20.810Z,22.54
2017-03-12T00:40:21.237Z,22.42
2017-03-12T00:41:21.509Z,22.54
2017-03-12T00:42:21.301Z,22.52
2017-03-12T00:43:21.337Z,22.51
2017-03-12T00:44:21.350Z,22.54
2017-03-12T00:45:20.592Z,22.54
2017-03-12T00:46:20.857Z,22.42
2017-03-12T00:47:21.445Z,22.46
2017-03-12T00:48:21.454Z,22.47
2017-03-12T00:49:21.090Z,22.37
2017-03-12T00:50:21.510Z,22.47
2017-03-12T00:51:21.821Z,22.43
2017-03-12T00:52:21.556Z,22.42
2017-03-12T00:53:21.589Z,22.39
2017-03-12T00:54:21.226Z,22.39
2017-03-12T00:55:20.859Z,22.39
2017-03-12T00:56:21.527Z,22.39
2017-03-12T00:57:21.305Z,22.42
2017-03-12T00:58:21.337Z,22.33
2017-03-12T00:59:21.352Z,22.42
2017-03-12T01:00:21.399Z,22.36
2017-03-12T01:01:21.672Z,22.39
2017-03-12T01:02:21.853Z,22.39
2017-03-12T01:03:21.886Z,22.36
2017-03-12T01:04:21.503Z,22.39
2017-03-12T01:05:21.923Z,22.4
2017-03-12T01:06:21.802Z,22.3
2017-03-12T01:07:21.583Z,22.36
2017-03-12T01:08:21.633Z,22.37
2017-03-12T01:09:22.042Z,22.39
2017-03-12T01:10:21.671Z,22.33
2017-03-12T01:11:21.558Z,22.24
2017-03-12T01:12:21.724Z,22.33
2017-03-12T01:13:22.156Z,22.31
2017-03-12T01:14:22.177Z,22.24
2017-03-12T01:15:21.798Z,22.36
2017-03-12T01:16:21.690Z,22.31
2017-03-12T01:17:22.255Z,22.28
2017-03-12T01:18:21.895Z,22.27
2017-03-12T01:19:21.521Z,22.27
2017-03-12T01:20:21.949Z,22.31
2017-03-12T01:21:21.825Z,22.3
2017-03-12T01:22:21.992Z,22.24
2017-03-12T01:23:22.021Z,22.27
2017-03-12T01:24:22.065Z,22.27
2017-03-12T01:25:22.478Z,22.27
2017-03-12T01:26:22.354Z,22.25
2017-03-12T01:27:22.135Z,22.24
2017-03-12T01:28:21.770Z,22.27
2017-03-12T01:29:22.593Z,22.3
2017-03-12T01:30:22.217Z,22.22
2017-03-12T01:31:22.501Z,22.28
2017-03-12T01:32:21.898Z,22.27
2017-03-12T01:33:21.911Z,22.21
2017-03-12T01:34:22.721Z,22.2
2017-03-12T01:35:22.753Z,22.27
2017-03-12T01:36:23.030Z,22.21
2017-03-12T01:37:22.418Z,22.2
2017-03-12T01:38:22.843Z,22.22
2017-03-12T01:39:22.881Z,22.17
2017-03-12T01:40:22.892Z,22.21
2017-03-12T01:41:22.373Z,22.24
2017-03-12T01:42:22.934Z,22.24
2017-03-12T01:43:22.187Z,22.18
2017-03-12T01:44:22.228Z,22.12
2017-03-12T01:45:22.630Z,22.22
2017-03-12T01:46:23.312Z,22.17
2017-03-12T01:47:23.086Z,22.14
2017-03-12T01:48:23.119Z,22.14
2017-03-12T01:49:23.135Z,22.1
2017-03-12T01:50:23.204Z,22.1
2017-03-12T01:51:22.648Z,22.07
2017-03-12T01:52:22.834Z,22.14
2017-03-12T01:53:22.842Z,22.05
2017-03-12T01:54:22.475Z,22.14
2017-03-12T01:55:23.324Z,22.06
2017-03-12T01:56:22.783Z,22.14
2017-03-12T01:57:23.358Z,22.1
2017-03-12T01:58:22.991Z,22.09
2017-03-12T01:59:23.404Z,22.1
2017-03-12T02:00:23.436Z,21.99
2017-03-12T02:01:22.932Z,22.14
2017-03-12T02:02:23.108Z,22.12
2017-03-12T02:03:23.518Z,22.05
2017-03-12T02:04:23.154Z,22.12
2017-03-12T02:05:23.175Z,22.06
2017-03-12T02:06:23.445Z,22.06
2017-03-12T02:07:22.837Z,22.03
2017-03-12T02:08:23.257Z,22.05
2017-03-12T02:09:23.299Z,22.09
2017-03-12T02:10:23.746Z,22.03
2017-03-12T02:11:23.984Z,22.06
2017-03-12T02:12:23.765Z,22.06
2017-03-12T02:13:23.397Z,22.06
2017-03-12T02:14:23.418Z,22.05
2017-03-12T02:15:23.851Z,21.98
2017-03-12T02:16:23.743Z,22
2017-03-12T02:17:23.508Z,22.03
2017-03-12T02:18:23.541Z,22.03
2017-03-12T02:19:23.602Z,22.06
2017-03-12T02:20:23.992Z,22.03
2017-03-12T02:21:24.267Z,22.03
2017-03-12T02:22:24.040Z,22.14
2017-03-12T02:23:23.665Z,22.07
2017-03-12T02:24:24.113Z,22.05
2017-03-12T02:25:23.728Z,22.02
2017-03-12T02:26:23.630Z,22.14
2017-03-12T02:27:23.776Z,22.07
2017-03-12T02:28:23.401Z,22.03
2017-03-12T02:29:23.837Z,22.02
2017-03-12T02:30:23.862Z,22
2017-03-12T02:31:24.555Z,22.03
2017-03-12T02:32:24.329Z,21.9
2017-03-12T02:33:23.964Z,22.03
2017-03-12T02:34:23.569Z,21.99
2017-03-12T02:35:23.998Z,22.03
2017-03-12T02:36:24.022Z,22
2017-03-12T02:37:24.051Z,22
2017-03-12T02:38:24.492Z,21.92
2017-03-12T02:39:23.737Z,22.02
2017-03-12T02:40:24.133Z,21.94
2017-03-12T02:41:24.166Z,21.91
2017-03-12T02:42:24.579Z,21.9
2017-03-12T02:43:24.612Z,21.91
2017-03-12T02:44:24.249Z,21.92
2017-03-12T02:45:23.877Z,21.92
2017-03-12T02:46:24.306Z,21.92
2017-03-12T02:47:24.714Z,21.83
2017-03-12T02:48:23.961Z,21.96
2017-03-12T02:49:24.784Z,21.98
2017-03-12T02:50:24.443Z,21.98
2017-03-12T02:51:24.442Z,21.91
2017-03-12T02:52:24.466Z,21.96
2017-03-12T02:53:24.486Z,21.91
2017-03-12T02:54:24.524Z,21.92
2017-03-12T02:55:24.945Z,21.96
2017-03-12T02:56:24.973Z,21.77
2017-03-12T02:57:24.610Z,21.94
2017-03-12T02:58:24.632Z,21.84
2017-03-12T02:59:24.255Z,21.82
2017-03-12T03:00:24.697Z,21.82
2017-03-12T03:01:24.305Z,21.75
2017-03-12T03:02:24.750Z,21.83
2017-03-12T03:03:24.366Z,21.9
2017-03-12T03:04:25.180Z,21.91
2017-03-12T03:05:24.820Z,21.92
2017-03-12T03:06:25.232Z,21.77
2017-03-12T03:07:25.265Z,21.9
2017-03-12T03:08:24.934Z,21.84
2017-03-12T03:09:24.935Z,21.9
2017-03-12T03:10:24.959Z,21.91
2017-03-12T03:11:24.577Z,21.88
2017-03-12T03:12:25.257Z,21.88
2017-03-12T03:13:24.646Z,21.86
2017-03-12T03:14:25.054Z,21.8
2017-03-12T03:15:25.095Z,21.77
2017-03-12T03:16:25.508Z,21.8
2017-03-12T03:17:25.385Z,21.8
2017-03-12T03:18:25.566Z,21.8
2017-03-12T03:19:25.606Z,21.74
2017-03-12T03:20:24.820Z,21.77
2017-03-12T03:21:24.864Z,21.77
2017-03-12T03:22:25.537Z,21.74
2017-03-12T03:23:25.316Z,21.74
2017-03-12T03:24:25.334Z,21.72
2017-03-12T03:25:25.363Z,21.77
2017-03-12T03:26:25.792Z,21.72
2017-03-12T03:27:26.089Z,21.72
2017-03-12T03:28:25.857Z,21.77
2017-03-12T03:29:25.857Z,21.8
2017-03-12T03:30:25.514Z,21.74
2017-03-12T03:31:25.922Z,21.72
2017-03-12T03:32:25.827Z,21.77
2017-03-12T03:33:25.200Z,21.74
2017-03-12T03:34:25.226Z,21.72
2017-03-12T03:35:26.027Z,21.72
2017-03-12T03:36:25.659Z,21.71
2017-03-12T03:37:25.554Z,21.71
2017-03-12T03:38:26.124Z,21.71
2017-03-12T03:39:26.178Z,21.72
2017-03-12T03:40:26.170Z,21.77
2017-03-12T03:41:25.786Z,21.69
2017-03-12T03:42:26.511Z,21.65
2017-03-12T03:43:25.847Z,21.68
2017-03-12T03:44:25.871Z,21.65
2017-03-12T03:45:26.294Z,21.72
2017-03-12T03:46:26.342Z,21.68
2017-03-12T03:47:25.807Z,21.68
2017-03-12T03:48:25.978Z,21.71
2017-03-12T03:49:26.015Z,21.69
2017-03-12T03:50:26.446Z,21.67
2017-03-12T03:51:26.077Z,21.67
2017-03-12T03:52:26.744Z,21.67
2017-03-12T03:53:26.116Z,21.67
2017-03-12T03:54:26.548Z,21.67
2017-03-12T03:55:26.181Z,21.71
2017-03-12T03:56:26.214Z,21.67
2017-03-12T03:57:26.078Z,21.68
2017-03-12T03:58:26.247Z,21.58
2017-03-12T03:59:26.674Z,21.56
2017-03-12T04:00:26.701Z,21.69
2017-03-12T04:01:26.329Z,21.59
2017-03-12T04:02:26.618Z,21.61
2017-03-12T04:03:26.774Z,21.62
2017-03-12T04:04:26.827Z,21.61
2017-03-12T04:05:26.052Z,21.64
2017-03-12T04:06:26.869Z,21.62
2017-03-12T04:07:26.346Z,21.62
2017-03-12T04:08:26.527Z,21.64
2017-03-12T04:09:26.940Z,21.62
2017-03-12T04:10:26.589Z,21.58
2017-03-12T04:11:27.001Z,21.59
2017-03-12T04:12:27.276Z,21.54
2017-03-12T04:13:26.667Z,21.59
2017-03-12T04:14:27.075Z,21.54
2017-03-12T04:15:26.321Z,21.58
2017-03-12T04:16:26.744Z,21.52
2017-03-12T04:17:26.637Z,21.58
2017-03-12T04:18:26.781Z,21.59
2017-03-12T04:19:26.823Z,21.52
2017-03-12T04:20:26.852Z,21.59
2017-03-12T04:21:27.269Z,21.53
2017-03-12T04:22:27.560Z,21.58
2017-03-12T04:23:26.934Z,21.56
2017-03-12T04:24:26.550Z,21.44
2017-03-12T04:25:26.987Z,21.58
2017-03-12T04:26:27.021Z,21.5
2017-03-12T04:27:27.685Z,21.58
2017-03-12T04:28:27.452Z,21.5
2017-03-12T04:29:27.090Z,21.46
2017-03-12T04:30:27.117Z,21.49
2017-03-12T04:31:27.543Z,21.53
2017-03-12T04:32:27.200Z,21.49
2017-03-12T04:33:27.193Z,21.53
2017-03-12T04:34:27.229Z,21.46
2017-03-12T04:35:27.261Z,21.47
2017-03-12T04:36:26.875Z,21.53
2017-03-12T04:37:27.316Z,21.5
2017-03-12T04:38:27.735Z,21.46
2017-03-12T04:39:27.351Z,21.47
2017-03-12T04:40:27.010Z,21.43
2017-03-12T04:41:27.023Z,21.53
2017-03-12T04:42:27.444Z,21.46
2017-03-12T04:43:27.865Z,21.46
2017-03-12T04:44:27.489Z,21.44
2017-03-12T04:45:27.513Z,21.46
2017-03-12T04:46:27.570Z,21.4
2017-03-12T04:47:27.595Z,21.42
2017-03-12T04:48:27.596Z,21.46
2017-03-12T04:49:27.629Z,21.38
2017-03-12T04:50:27.654Z,21.46
2017-03-12T04:51:27.676Z,21.37
2017-03-12T04:52:27.709Z,21.44
2017-03-12T04:53:28.132Z,21.35
2017-03-12T04:54:27.764Z,21.34
2017-03-12T04:55:27.773Z,21.35
2017-03-12T04:56:28.205Z,21.35
2017-03-12T04:57:27.449Z,21.29
2017-03-12T04:58:27.890Z,21.32
2017-03-12T04:59:27.895Z,21.32
2017-03-12T05:00:27.557Z,21.32
2017-03-12T05:01:27.585Z,21.38
2017-03-12T05:02:27.973Z,21.42
2017-03-12T05:03:28.007Z,21.4
2017-03-12T05:04:28.428Z,21.4
2017-03-12T05:05:28.455Z,21.34
2017-03-12T05:06:28.079Z,21.37
2017-03-12T05:07:28.122Z,21.37
2017-03-12T05:08:28.147Z,21.37
2017-03-12T05:09:28.585Z,21.37
2017-03-12T05:10:28.209Z,21.44
2017-03-12T05:11:28.617Z,21.32
2017-03-12T05:12:28.261Z,21.4
2017-03-12T05:13:28.275Z,21.35
2017-03-12T05:14:28.331Z,21.38
2017-03-12T05:15:28.716Z,21.31
2017-03-12T05:16:28.344Z,21.42
2017-03-12T05:17:27.979Z,21.29
2017-03-12T05:18:28.670Z,21.31
2017-03-12T05:19:28.031Z,21.31
2017-03-12T05:20:28.068Z,21.29
2017-03-12T05:21:28.897Z,21.38
2017-03-12T05:22:28.917Z,21.42
2017-03-12T05:23:28.794Z,21.37
2017-03-12T05:24:28.971Z,21.34
2017-03-12T05:25:28.587Z,21.38
2017-03-12T05:26:29.024Z,21.4
2017-03-12T05:27:28.655Z,21.37
2017-03-12T05:28:28.927Z,21.42
2017-03-12T05:29:29.112Z,21.34
2017-03-12T05:30:28.328Z,21.4
2017-03-12T05:31:29.164Z,21.4
2017-03-12T05:32:28.389Z,21.4
2017-03-12T05:33:29.070Z,21.46
2017-03-12T05:34:28.438Z,21.42
2017-03-12T05:35:29.267Z,21.46
2017-03-12T05:36:29.303Z,21.46
2017-03-12T05:37:29.323Z,21.47
2017-03-12T05:38:29.196Z,21.5
2017-03-12T05:39:28.578Z,21.44
2017-03-12T05:40:28.991Z,21.52
2017-03-12T05:41:28.629Z,21.47
2017-03-12T05:42:29.438Z,21.5
2017-03-12T05:43:28.929Z,21.58
2017-03-12T05:44:29.497Z,21.58
2017-03-12T05:45:29.150Z,21.58
2017-03-12T05:46:29.551Z,21.59
2017-03-12T05:47:29.581Z,21.69
2017-03-12T05:48:29.453Z,21.58
2017-03-12T05:49:29.245Z,21.53
2017-03-12T05:50:29.271Z,21.61
2017-03-12T05:51:29.294Z,21.67
2017-03-12T05:52:29.723Z,21.67
2017-03-12T05:53:29.603Z,21.71
2017-03-12T05:54:29.373Z,21.74
2017-03-12T05:55:28.998Z,21.77
2017-03-12T05:56:29.431Z,21.71
2017-03-12T05:57:29.467Z,21.8
2017-03-12T05:58:30.128Z,21.74
2017-03-12T05:59:29.897Z,21.71
2017-03-12T06:00:29.922Z,21.77
2017-03-12T06:01:29.570Z,21.75
2017-03-12T06:02:29.979Z,21.82
2017-03-12T06:03:29.880Z,21.86
2017-03-12T06:04:29.640Z,21.77
2017-03-12T06:05:29.293Z,21.88
2017-03-12T06:06:30.089Z,21.94
2017-03-12T06:07:29.339Z,21.9
2017-03-12T06:08:29.995Z,21.77
2017-03-12T06:09:29.384Z,21.96
2017-03-12T06:10:30.201Z,21.88
2017-03-12T06:11:30.218Z,21.83
2017-03-12T06:12:30.250Z,21.77
2017-03-12T06:13:30.146Z,21.96
2017-03-12T06:14:30.316Z,21.9
2017-03-12T06:15:29.956Z,21.92
2017-03-12T06:16:29.973Z,21.92
2017-03-12T06:17:30.404Z,21.9
2017-03-12T06:18:30.654Z,22.03
2017-03-12T06:19:30.436Z,22.06
2017-03-12T06:20:30.068Z,22.07
2017-03-12T06:21:29.709Z,22.03
2017-03-12T06:22:30.518Z,22.03
2017-03-12T06:23:30.814Z,22.02
2017-03-12T06:24:30.579Z,22.02
2017-03-12T06:25:30.617Z,22.03
2017-03-12T06:26:30.244Z,22.09
2017-03-12T06:27:30.667Z,22.07
2017-03-12T06:28:30.287Z,22.09
2017-03-12T06:29:30.316Z,22.12
2017-03-12T06:30:30.348Z,22.05
2017-03-12T06:31:30.380Z,22.15
2017-03-12T06:32:30.389Z,22.12
2017-03-12T06:33:30.416Z,22.17
2017-03-12T06:34:30.843Z,22.1
2017-03-12T06:35:30.872Z,22.17
2017-03-12T06:36:30.921Z,22.18
2017-03-12T06:37:30.941Z,22.18
2017-03-12T06:38:30.957Z,22.14
2017-03-12T06:39:30.586Z,22.14
2017-03-12T06:40:31.003Z,22.2
2017-03-12T06:41:30.632Z,22.21
2017-03-12T06:42:30.665Z,22.24
2017-03-12T06:43:30.690Z,22.22
2017-03-12T06:44:30.714Z,22.24
2017-03-12T06:45:30.755Z,22.25
2017-03-12T06:46:30.376Z,22.27
2017-03-12T06:47:31.207Z,22.28
2017-03-12T06:48:30.841Z,22.33
2017-03-12T06:49:31.246Z,22.27
2017-03-12T06:50:30.887Z,22.28
2017-03-12T06:51:30.562Z,22.28
2017-03-12T06:52:31.356Z,22.31
2017-03-12T06:53:30.557Z,22.35
2017-03-12T06:54:30.878Z,22.28
2017-03-12T06:55:30.615Z,22.24
2017-03-12T06:56:30.659Z,22.27
2017-03-12T06:57:31.084Z,22.27
2017-03-12T06:58:30.698Z,22.27
2017-03-12T06:59:30.994Z,22.36
2017-03-12T07:00:31.159Z,22.39
2017-03-12T07:01:31.199Z,22.33
2017-03-12T07:02:31.600Z,22.42
2017-03-12T07:03:31.243Z,22.39
2017-03-12T07:04:31.913Z,22.45
2017-03-12T07:05:31.698Z,22.37
2017-03-12T07:06:31.319Z,22.4
2017-03-12T07:07:30.947Z,22.52
2017-03-12T07:08:30.972Z,22.51
2017-03-12T07:09:31.638Z,22.45
2017-03-12T07:10:31.422Z,22.51
2017-03-12T07:11:31.460Z,22.49
2017-03-12T07:12:31.884Z,22.61
2017-03-12T07:13:31.121Z,22.54
2017-03-12T07:14:31.781Z,22.72
2017-03-12T07:15:31.953Z,22.68
2017-03-12T07:16:31.974Z,22.85
2017-03-12T07:17:31.227Z,23.01
2017-03-12T07:18:31.252Z,23.09
2017-03-12T07:19:31.537Z,23.19
2017-03-12T07:20:31.700Z,23.35
2017-03-12T07:21:31.347Z,23.43
2017-03-12T07:22:32.155Z,23.61
2017-03-12T07:23:31.779Z,23.72
2017-03-12T07:24:31.653Z,23.72
2017-03-12T07:25:31.853Z,23.87
2017-03-12T07:26:32.270Z,23.9
2017-03-12T07:27:32.291Z,23.94
2017-03-12T07:28:32.320Z,24.05
2017-03-12T07:29:32.212Z,24.12
2017-03-12T07:30:31.969Z,24.27
2017-03-12T07:31:32.013Z,24.34
2017-03-12T07:32:32.022Z,24.4
2017-03-12T07:33:31.671Z,24.45
2017-03-12T07:34:32.340Z,24.58
2017-03-12T07:35:32.104Z,24.57
2017-03-12T07:36:32.138Z,24.65
2017-03-12T07:37:31.793Z,24.61
2017-03-12T07:38:32.231Z,24.64
2017-03-12T07:39:32.867Z,24.55
2017-03-12T07:40:32.260Z,24.57
2017-03-12T07:41:32.282Z,24.47
2017-03-12T07:42:31.906Z,24.43
2017-03-12T07:43:32.355Z,24.39
2017-03-12T07:44:33.043Z,24.39
2017-03-12T07:45:32.401Z,24.21
2017-03-12T07:46:32.013Z,24.27
2017-03-12T07:47:32.446Z,24.15
2017-03-12T07:48:32.075Z,24.2
2017-03-12T07:49:33.140Z,24.2
2017-03-12T07:50:32.141Z,24.21
2017-03-12T07:51:32.957Z,24.2
2017-03-12T07:52:32.586Z,24.09
2017-03-12T07:53:32.622Z,24.12
2017-03-12T07:54:33.287Z,24
2017-03-12T07:55:33.072Z,24.1
2017-03-12T07:56:32.696Z,24.06
2017-03-12T07:57:32.745Z,24.06
2017-03-12T07:58:32.750Z,23.98
2017-03-12T07:59:33.431Z,24
2017-03-12T08:00:32.824Z,23.98
2017-03-12T08:01:32.847Z,23.94
2017-03-12T08:02:33.265Z,23.95
2017-03-12T08:03:32.894Z,23.98
2017-03-12T08:04:32.934Z,23.94
2017-03-12T08:05:33.351Z,23.95
2017-03-12T08:06:33.377Z,23.85
2017-03-12T08:07:33.005Z,23.87
2017-03-12T08:08:33.436Z,23.87
2017-03-12T08:09:33.455Z,23.95
2017-03-12T08:10:33.519Z,23.97
2017-03-12T08:11:33.112Z,23.84
2017-03-12T08:12:33.565Z,23.95
2017-03-12T08:13:33.569Z,23.88
2017-03-12T08:14:33.190Z,23.85
2017-03-12T08:15:33.219Z,23.85
2017-03-12T08:16:33.245Z,23.87
2017-03-12T08:17:33.680Z,23.85
2017-03-12T08:18:33.738Z,23.87
2017-03-12T08:19:33.731Z,23.87
2017-03-12T08:20:33.383Z,23.85
2017-03-12T08:21:33.391Z,23.88
2017-03-12T08:22:33.028Z,23.83
2017-03-12T08:23:33.865Z,23.88
2017-03-12T08:24:33.481Z,23.87
2017-03-12T08:25:33.897Z,23.9
2017-03-12T08:26:33.939Z,23.78
2017-03-12T08:27:33.952Z,23.85
2017-03-12T08:28:33.996Z,23.83
2017-03-12T08:29:33.250Z,23.84
2017-03-12T08:30:33.903Z,23.79
2017-03-12T08:31:34.087Z,23.75
2017-03-12T08:32:34.100Z,23.76
2017-03-12T08:33:34.125Z,23.78
2017-03-12T08:34:34.161Z,23.7
2017-03-12T08:35:34.438Z,23.76
2017-03-12T08:36:33.407Z,23.73
2017-03-12T08:37:34.266Z,23.75
2017-03-12T08:38:34.276Z,23.69
2017-03-12T08:39:34.301Z,23.72
2017-03-12T08:40:34.574Z,23.65
2017-03-12T08:41:33.971Z,23.58
2017-03-12T08:42:34.387Z,23.61
2017-03-12T08:43:34.405Z,23.61
2017-03-12T08:44:34.438Z,23.63
2017-03-12T08:45:34.310Z,23.65
2017-03-12T08:46:34.494Z,23.6
2017-03-12T08:47:34.519Z,23.57
2017-03-12T08:48:34.547Z,23.55
2017-03-12T08:49:34.172Z,23.65
2017-03-12T08:50:34.864Z,23.54
2017-03-12T08:51:34.636Z,23.57
2017-03-12T08:52:34.656Z,23.72
2017-03-12T08:53:34.298Z,23.75
2017-03-12T08:54:34.721Z,23.9
2017-03-12T08:55:34.989Z,23.95
2017-03-12T08:56:34.366Z,24.13
2017-03-12T08:57:34.798Z,24.3
2017-03-12T08:58:34.823Z,24.52
2017-03-12T08:59:34.864Z,24.68
2017-03-12T09:00:34.751Z,24.84
2017-03-12T09:01:34.913Z,24.96
2017-03-12T09:02:34.552Z,25.14
2017-03-12T09:03:34.567Z,25.21
2017-03-12T09:04:34.203Z,25.2
2017-03-12T09:05:35.271Z,25.32
2017-03-12T09:06:35.056Z,25.42
2017-03-12T09:07:34.694Z,25.46
2017-03-12T09:08:34.707Z,25.36
2017-03-12T09:09:35.155Z,25.4
2017-03-12T09:10:35.420Z,25.43
2017-03-12T09:11:35.193Z,25.35
2017-03-12T09:12:35.233Z,25.2
2017-03-12T09:13:35.267Z,25.18
2017-03-12T09:14:34.891Z,25.09
2017-03-12T09:15:35.175Z,24.88
2017-03-12T09:16:34.945Z,24.83
2017-03-12T09:17:34.975Z,24.69
2017-03-12T09:18:34.997Z,24.76
2017-03-12T09:19:35.423Z,24.53
2017-03-12T09:20:35.706Z,24.57
2017-03-12T09:21:35.475Z,24.52
2017-03-12T09:22:35.105Z,24.43
2017-03-12T09:23:35.525Z,24.39
2017-03-12T09:24:35.570Z,24.37
2017-03-12T09:25:35.859Z,24.35
2017-03-12T09:26:35.236Z,24.3
2017-03-12T09:27:35.256Z,24.2
2017-03-12T09:28:34.878Z,24.18
2017-03-12T09:29:35.698Z,24.21
2017-03-12T09:30:35.354Z,24.09
2017-03-12T09:31:34.964Z,24.09
2017-03-12T09:32:35.789Z,24.21
2017-03-12T09:33:35.822Z,24.18
2017-03-12T09:34:35.480Z,24.1
2017-03-12T09:35:35.875Z,24.09
2017-03-12T09:36:35.908Z,24.08
2017-03-12T09:37:35.924Z,24.08
2017-03-12T09:38:35.953Z,24.06
2017-03-12T09:39:35.588Z,24.02
2017-03-12T09:40:36.017Z,23.98
2017-03-12T09:41:35.254Z,23.98
2017-03-12T09:42:36.075Z,24.06
2017-03-12T09:43:36.093Z,24
2017-03-12T09:44:35.731Z,24.02
2017-03-12T09:45:36.158Z,24.05
2017-03-12T09:46:36.200Z,24.03
2017-03-12T09:47:36.221Z,24.06
2017-03-12T09:48:35.837Z,24
2017-03-12T09:49:36.270Z,23.98
2017-03-12T09:50:36.306Z,24.05
2017-03-12T09:51:35.943Z,24
2017-03-12T09:52:35.556Z,24.05
2017-03-12T09:53:35.582Z,24.05
2017-03-12T09:54:36.009Z,23.98
2017-03-12T09:55:36.434Z,24
2017-03-12T09:56:36.463Z,24.03
2017-03-12T09:57:36.512Z,24.05
2017-03-12T09:58:36.519Z,23.98
2017-03-12T09:59:36.565Z,24.12
2017-03-12T10:00:36.602Z,24.08
2017-03-12T10:01:36.211Z,24.1
2017-03-12T10:02:36.645Z,24.08
2017-03-12T10:03:36.680Z,24.1
2017-03-12T10:04:36.706Z,24.16
2017-03-12T10:05:36.327Z,24.24
2017-03-12T10:06:37.007Z,24.27
2017-03-12T10:07:36.387Z,24.25
2017-03-12T10:08:36.828Z,24.3
2017-03-12T10:09:36.840Z,24.31
2017-03-12T10:10:36.074Z,24.24
2017-03-12T10:11:36.755Z,24.24
2017-03-12T10:12:36.115Z,24.31
2017-03-12T10:13:36.564Z,24.28
2017-03-12T10:14:36.969Z,24.39
2017-03-12T10:15:36.630Z,24.31
2017-03-12T10:16:36.494Z,24.39
2017-03-12T10:17:36.696Z,24.43
2017-03-12T10:18:37.091Z,24.37
2017-03-12T10:19:37.120Z,24.35
2017-03-12T10:20:37.149Z,24.37
2017-03-12T10:21:37.039Z,24.43
2017-03-12T10:22:37.199Z,24.47
2017-03-12T10:23:36.843Z,24.45
2017-03-12T10:24:36.899Z,24.46
2017-03-12T10:25:37.309Z,24.47
2017-03-12T10:26:37.608Z,24.47
2017-03-12T10:27:37.355Z,24.46
2017-03-12T10:28:37.372Z,24.43
2017-03-12T10:29:37.412Z,24.52
2017-03-12T10:30:36.665Z,24.45
2017-03-12T10:31:37.724Z,24.45
2017-03-12T10:32:37.098Z,24.45
2017-03-12T10:33:37.128Z,24.45
2017-03-12T10:34:36.772Z,24.42
2017-03-12T10:35:37.580Z,24.47
2017-03-12T10:36:37.458Z,24.46
2017-03-12T10:37:37.635Z,24.47
2017-03-12T10:38:36.867Z,24.4
2017-03-12T10:39:37.300Z,24.43
2017-03-12T10:40:36.911Z,24.49
2017-03-12T10:41:37.625Z,24.52
2017-03-12T10:42:36.973Z,24.45
2017-03-12T10:43:37.411Z,24.46
2017-03-12T10:44:37.433Z,24.42
2017-03-12T10:45:37.466Z,24.43
2017-03-12T10:46:38.144Z,24.43
2017-03-12T10:47:37.522Z,24.49
2017-03-12T10:48:37.547Z,24.47
2017-03-12T10:49:37.571Z,24.46
2017-03-12T10:50:37.605Z,24.39
2017-03-12T10:51:38.298Z,24.4
2017-03-12T10:52:38.082Z,24.43
2017-03-12T10:53:38.087Z,24.42
2017-03-12T10:54:37.715Z,24.4
2017-03-12T10:55:38.143Z,24.4
2017-03-12T10:56:38.037Z,24.43
2017-03-12T10:57:38.201Z,24.45
2017-03-12T10:58:38.230Z,24.46
2017-03-12T10:59:37.907Z,24.37
2017-03-12T11:00:37.900Z,24.46
2017-03-12T11:01:38.580Z,24.58
2017-03-12T11:02:38.354Z,24.4
2017-03-12T11:03:38.386Z,24.57
2017-03-12T11:04:38.420Z,24.55
2017-03-12T11:05:37.632Z,24.52
2017-03-12T11:06:37.676Z,24.49
2017-03-12T11:07:38.093Z,24.57
2017-03-12T11:08:38.135Z,24.55
2017-03-12T11:09:38.167Z,24.53
2017-03-12T11:10:38.572Z,24.53
2017-03-12T11:11:38.601Z,24.64
2017-03-12T11:12:38.650Z,24.55
2017-03-12T11:13:38.271Z,24.6
2017-03-12T11:14:38.311Z,24.58
2017-03-12T11:15:38.723Z,24.55
2017-03-12T11:16:38.764Z,24.64
2017-03-12T11:17:38.789Z,24.65
2017-03-12T11:18:38.805Z,24.62
2017-03-12T11:19:38.843Z,24.69
2017-03-12T11:20:38.872Z,24.73
2017-03-12T11:21:38.512Z,24.67
2017-03-12T11:22:38.926Z,24.65
2017-03-12T11:23:38.550Z,24.77
2017-03-12T11:24:38.595Z,24.83
2017-03-12T11:25:39.020Z,24.8
2017-03-12T11:26:39.044Z,24.83
2017-03-12T11:27:39.071Z,24.9
2017-03-12T11:28:39.094Z,24.83
2017-03-12T11:29:39.139Z,24.83
2017-03-12T11:30:39.159Z,24.87
2017-03-12T11:31:39.187Z,24.88
2017-03-12T11:32:39.223Z,25
2017-03-12T11:33:38.849Z,24.98
2017-03-12T11:34:39.269Z,24.96
2017-03-12T11:35:39.299Z,25.05
2017-03-12T11:36:39.331Z,25
2017-03-12T11:37:38.961Z,25.1
2017-03-12T11:38:39.398Z,25.08
2017-03-12T11:39:39.014Z,25.13
2017-03-12T11:40:39.048Z,25.1
2017-03-12T11:41:39.704Z,25.1
2017-03-12T11:42:39.773Z,25.21
2017-03-12T11:43:39.521Z,25.21
2017-03-12T11:44:38.766Z,25.27
2017-03-12T11:45:39.599Z,25.25
2017-03-12T11:46:39.252Z,25.3
2017-03-12T11:47:39.501Z,25.33
2017-03-12T11:48:39.677Z,25.35
2017-03-12T11:49:39.702Z,25.35
2017-03-12T11:50:39.739Z,25.4
2017-03-12T11:51:39.363Z,25.46
2017-03-12T11:52:39.656Z,25.51
2017-03-12T11:53:39.428Z,25.54
2017-03-12T11:54:39.464Z,25.5
2017-03-12T11:55:39.491Z,25.58
2017-03-12T11:56:39.507Z,25.72
2017-03-12T11:57:40.198Z,25.77
2017-03-12T11:58:39.187Z,25.8
2017-03-12T11:59:39.623Z,25.9
2017-03-12T12:00:39.634Z,25.91
2017-03-12T12:01:40.060Z,26.02
2017-03-12T12:02:39.939Z,26.1
2017-03-12T12:03:40.125Z,26.15
2017-03-12T12:04:40.158Z,26.3
2017-03-12T12:05:40.176Z,26.33
2017-03-12T12:06:39.819Z,26.37
2017-03-12T12:07:40.092Z,26.57
2017-03-12T12:08:40.256Z,26.62
2017-03-12T12:09:40.297Z,26.77
2017-03-12T12:10:39.934Z,26.82
2017-03-12T12:11:39.567Z,27.02
2017-03-12T12:12:40.640Z,27.03
2017-03-12T12:13:39.646Z,27.14
2017-03-12T12:14:40.462Z,27.21
2017-03-12T12:15:40.087Z,27.25
2017-03-12T12:16:39.723Z,27.36
2017-03-12T12:17:40.804Z,27.44
2017-03-12T12:18:40.180Z,27.46
2017-03-12T12:19:40.609Z,27.6
2017-03-12T12:20:40.235Z,27.67
2017-03-12T12:21:40.671Z,27.75
2017-03-12T12:22:40.963Z,27.85
2017-03-12T12:23:40.356Z,27.9
2017-03-12T12:24:40.394Z,27.97
2017-03-12T12:25:41.013Z,27.94
2017-03-12T12:26:40.814Z,28
2017-03-12T12:27:40.699Z,28.15
2017-03-12T12:28:40.088Z,28.22
2017-03-12T12:29:40.116Z,28.33
2017-03-12T12:30:40.164Z,28.37
2017-03-12T12:31:40.982Z,28.37
2017-03-12T12:32:40.886Z,28.43
2017-03-12T12:33:41.036Z,28.54
2017-03-12T12:34:40.681Z,28.59
2017-03-12T12:35:41.091Z,28.68
2017-03-12T12:36:40.738Z,28.68
2017-03-12T12:37:41.415Z,28.66
2017-03-12T12:38:41.419Z,28.78
2017-03-12T12:39:41.228Z,28.86
2017-03-12T12:40:41.253Z,28.89
2017-03-12T12:41:41.517Z,28.9
2017-03-12T12:42:41.174Z,29.02
2017-03-12T12:43:41.363Z,28.98
2017-03-12T12:44:40.996Z,29.11
2017-03-12T12:45:41.021Z,29.08
2017-03-12T12:46:41.058Z,29.15
2017-03-12T12:47:41.331Z,29.16
2017-03-12T12:48:41.531Z,29.24
2017-03-12T12:49:41.150Z,29.18
2017-03-12T12:50:41.177Z,29.21
2017-03-12T12:51:41.206Z,29.3
2017-03-12T12:52:41.886Z,29.27
2017-03-12T12:53:41.267Z,29.27
2017-03-12T12:54:41.712Z,29.33
2017-03-12T12:55:41.739Z,29.28
2017-03-12T12:56:41.385Z,29.3